Time;durP1;ratioP1;P1;durP2;ratioP2;P2;SDS_P1;SDS_P2;PMS_P1;PMS_P2;Temp;Humidity;BMP_temperature;BMP_pressure;BME280_temperature;BME280_humidity;BME280_pressure;Samples;Min_cycle;Max_cycle;Signal;HPM_P1;HPM_P2
2022/03/27 00:00:55;;;;;;;24.3;17.8;;;;;;;6.25;67.375;948.0147;;;;
2022/03/27 00:03:23;;;;;;;25.5;18.2;;;;;;;6.2;67.37793;947.9551;;;;
2022/03/27 00:05:49;;;;;;;23.4;17.2;;;;;;;6.16;67.47363;948.0891;;;;
2022/03/27 00:08:23;;;;;;;23.9;16.5;;;;;;;6.02;67.68848;948.0126;;;;
2022/03/27 00:13:27;;;;;;;23.1;17.1;;;;;;;5.68;68.91016;948.017;;;;
2022/03/27 00:16:09;;;;;;;25.5;18;;;;;;;5.64;69.06152;947.9916;;;;
2022/03/27 00:18:42;;;;;;;23.2;16.3;;;;;;;5.67;69.05469;948.0064;;;;
2022/03/27 00:21:06;;;;;;;23.8;17.5;;;;;;;5.58;70.05762;947.955;;;;
2022/03/27 00:23:40;;;;;;;22.6;16.7;;;;;;;5.39;70.4541;948.034;;;;
2022/03/27 00:27:03;;;;;;;25.2;17.3;;;;;;;5.32;71.4248;948.0112;;;;
2022/03/27 00:34:28;;;;;;;28.6;19.5;;;;;;;5.42;71.05762;947.9677;;;;
2022/03/27 00:36:54;;;;;;;25.2;18.6;;;;;;;5.43;70.80176;948.0377;;;;
2022/03/27 00:39:19;;;;;;;25.7;18.1;;;;;;;5.33;70.90723;947.9918;;;;
2022/03/27 00:41:45;;;;;;;24.5;18.8;;;;;;;5.34;70.7959;947.9947;;;;
2022/03/27 00:44:11;;;;;;;24.9;18.5;;;;;;;5.11;71.93164;947.9706;;;;
2022/03/27 00:46:35;;;;;;;23.3;17.8;;;;;;;5.17;71.70508;948.0112;;;;
2022/03/27 00:49:00;;;;;;;25.8;18.8;;;;;;;4.9;72.97852;947.9725;;;;
2022/03/27 00:51:26;;;;;;;24.8;17.9;;;;;;;4.84;73.34863;948.0058;;;;
2022/03/27 00:53:51;;;;;;;25.5;18.4;;;;;;;4.74;74.05273;947.9401;;;;
2022/03/27 00:57:37;;;;;;;26.6;18.7;;;;;;;4.78;73.92383;947.991;;;;
2022/03/27 01:00:03;;;;;;;26.2;18.7;;;;;;;4.77;73.73242;947.9922;;;;
2022/03/27 01:02:28;;;;;;;25.2;17.9;;;;;;;4.98;72.92285;947.9872;;;;
2022/03/27 01:04:53;;;;;;;25.3;18.3;;;;;;;5.16;71.87109;947.9587;;;;
2022/03/27 01:07:19;;;;;;;24.1;18.3;;;;;;;5.22;71.46484;947.9877;;;;
2022/03/27 01:09:45;;;;;;;25.8;17.9;;;;;;;5.06;71.80762;947.964;;;;
2022/03/27 01:12:10;;;;;;;26.6;18.8;;;;;;;4.85;72.6875;947.8969;;;;
2022/03/27 01:14:35;;;;;;;27.1;19.3;;;;;;;4.87;72.59082;947.9041;;;;
2022/03/27 01:17:01;;;;;;;27.5;18.6;;;;;;;4.92;72.45117;947.8801;;;;
2022/03/27 01:19:26;;;;;;;24;17.7;;;;;;;5.03;72.05273;947.8248;;;;
2022/03/27 01:21:50;;;;;;;25.2;17.5;;;;;;;4.89;72.56934;947.8361;;;;
2022/03/27 01:24:15;;;;;;;26.2;18.6;;;;;;;4.73;73.40918;947.7653;;;;
2022/03/27 01:26:40;;;;;;;25.6;17.6;;;;;;;4.56;74.0791;947.7913;;;;
2022/03/27 01:29:06;;;;;;;26.4;18.3;;;;;;;4.4;75.00586;947.8003;;;;
2022/03/27 01:31:31;;;;;;;25.1;17.9;;;;;;;4.39;75.37793;947.8212;;;;
2022/03/27 01:33:57;;;;;;;25.5;18.8;;;;;;;4.41;75.21387;947.7802;;;;
2022/03/27 01:36:23;;;;;;;26.2;18;;;;;;;4.51;74.75684;947.7303;;;;
2022/03/27 01:38:48;;;;;;;24.6;18.9;;;;;;;4.46;75.05078;947.6884;;;;
2022/03/27 01:41:13;;;;;;;27.5;19.1;;;;;;;4.49;74.87695;947.6719;;;;
2022/03/27 01:43:39;;;;;;;25.9;18;;;;;;;4.24;75.96973;947.6708;;;;
2022/03/27 01:46:15;;;;;;;25.2;17.8;;;;;;;4.49;74.99023;947.5955;;;;
2022/03/27 01:48:42;;;;;;;25.5;18.1;;;;;;;4.51;74.73535;947.5838;;;;
2022/03/27 01:51:08;;;;;;;26.4;18;;;;;;;4.48;74.77441;947.6044;;;;
2022/03/27 01:56:41;;;;;;;26.4;18.8;;;;;;;4.43;75.54199;947.6233;;;;
2022/03/27 01:59:07;;;;;;;28.5;19.6;;;;;;;4.57;74.99316;947.6392;;;;
2022/03/27 02:01:31;;;;;;;27.2;20;;;;;;;4.67;74.22168;947.6096;;;;
2022/03/27 02:03:56;;;;;;;28.1;19.3;;;;;;;4.54;74.88672;947.5985;;;;
2022/03/27 02:06:23;;;;;;;26.4;18.4;;;;;;;4.59;74.46875;947.5403;;;;
2022/03/27 02:08:48;;;;;;;27.4;18.3;;;;;;;4.43;74.75391;947.5564;;;;
2022/03/27 02:11:13;;;;;;;25.9;18.4;;;;;;;4.38;74.7666;947.5338;;;;
2022/03/27 02:13:38;;;;;;;24.3;18;;;;;;;4.2;75.4209;947.4901;;;;
2022/03/27 02:16:03;;;;;;;31.8;19.7;;;;;;;4.28;74.96484;947.5206;;;;
2022/03/27 02:18:28;;;;;;;25.3;18.9;;;;;;;4.36;74.03223;947.5486;;;;
2022/03/27 02:20:54;;;;;;;23.8;17.6;;;;;;;4.32;73.87891;947.565;;;;
2022/03/27 02:25:44;;;;;;;23.6;18.4;;;;;;;4.12;74.85547;947.6242;;;;
2022/03/27 02:28:09;;;;;;;30.6;20.8;;;;;;;4.09;75.08691;947.6387;;;;
2022/03/27 02:30:34;;;;;;;29.9;19.9;;;;;;;4.19;74.59863;947.6236;;;;
2022/03/27 02:33:01;;;;;;;28.4;20.7;;;;;;;4.14;74.82715;947.6309;;;;
2022/03/27 02:35:26;;;;;;;27.9;19.2;;;;;;;3.98;75.22559;947.6069;;;;
2022/03/27 02:37:51;;;;;;;28.3;19.3;;;;;;;4.01;75.01855;947.5402;;;;
2022/03/27 02:40:16;;;;;;;27;18.9;;;;;;;3.75;76.20801;947.5994;;;;
2022/03/27 02:42:43;;;;;;;26;18.8;;;;;;;3.77;76.74023;947.5547;;;;
2022/03/27 02:45:08;;;;;;;24.3;17.3;;;;;;;3.83;76.52637;947.5294;;;;
2022/03/27 02:47:34;;;;;;;26.2;18.6;;;;;;;3.75;76.96094;947.4977;;;;
2022/03/27 02:49:59;;;;;;;26.2;18;;;;;;;3.81;76.8252;947.4805;;;;
2022/03/27 02:52:24;;;;;;;25.9;18.2;;;;;;;3.84;76.65039;947.5148;;;;
2022/03/27 02:54:50;;;;;;;26.5;18.3;;;;;;;3.86;76.8457;947.5262;;;;
2022/03/27 02:57:15;;;;;;;25.2;18.7;;;;;;;3.85;77.12402;947.4397;;;;
2022/03/27 02:59:41;;;;;;;25.9;18.6;;;;;;;3.94;76.66797;947.5317;;;;
2022/03/27 03:02:06;;;;;;;27.4;19.3;;;;;;;3.91;76.61816;947.5592;;;;
2022/03/27 03:04:34;;;;;;;27.6;19.8;;;;;;;3.82;77.16406;947.5488;;;;
2022/03/27 03:06:58;;;;;;;32.6;22.8;;;;;;;3.86;77.02539;947.5466;;;;
2022/03/27 03:09:24;;;;;;;43;31.1;;;;;;;3.85;76.93457;947.5234;;;;
2022/03/27 03:11:49;;;;;;;41.2;29.9;;;;;;;3.75;77.40918;947.492;;;;
2022/03/27 03:14:15;;;;;;;35.3;26.5;;;;;;;3.73;77.58691;947.5076;;;;
2022/03/27 03:16:39;;;;;;;38.4;28.3;;;;;;;3.79;77.08008;947.5208;;;;
2022/03/27 03:19:04;;;;;;;32.3;22.8;;;;;;;3.88;76.42188;947.4412;;;;
2022/03/27 03:21:30;;;;;;;26.3;18.2;;;;;;;3.87;76.69043;947.4497;;;;
2022/03/27 03:23:55;;;;;;;24.2;18.2;;;;;;;4.09;75.2334;947.4323;;;;
2022/03/27 03:26:22;;;;;;;25.7;18.6;;;;;;;3.88;76.58105;947.3989;;;;
2022/03/27 03:28:47;;;;;;;27.3;18.4;;;;;;;3.79;77.14746;947.4753;;;;
2022/03/27 03:31:13;;;;;;;26.5;18.8;;;;;;;3.75;77.47852;947.4009;;;;
2022/03/27 03:33:38;;;;;;;28.1;18.9;;;;;;;3.65;77.87598;947.48;;;;
2022/03/27 03:36:03;;;;;;;26;17.8;;;;;;;3.75;77.32227;947.4807;;;;
2022/03/27 03:38:28;;;;;;;26.8;18.8;;;;;;;3.81;76.9375;947.4467;;;;
2022/03/27 03:40:54;;;;;;;24.5;18.6;;;;;;;3.79;76.94531;947.4391;;;;
2022/03/27 03:43:20;;;;;;;25.3;17.8;;;;;;;3.79;76.99023;947.4233;;;;
2022/03/27 03:45:44;;;;;;;26.8;18.6;;;;;;;3.8;76.92578;947.3967;;;;
2022/03/27 03:48:22;;;;;;;23.8;17.5;;;;;;;3.93;76.15039;947.4739;;;;
2022/03/27 03:50:48;;;;;;;26.2;18.3;;;;;;;3.79;76.40723;947.5392;;;;
2022/03/27 03:53:13;;;;;;;24.7;17.5;;;;;;;3.68;76.82422;947.4141;;;;
2022/03/27 03:55:40;;;;;;;24.3;17.5;;;;;;;3.73;76.31738;947.5092;;;;
2022/03/27 03:58:05;;;;;;;22.2;16.7;;;;;;;3.61;76.62012;947.4514;;;;
2022/03/27 04:02:31;;;;;;;25.1;18.1;;;;;;;3.55;76.97949;947.4179;;;;
2022/03/27 04:04:56;;;;;;;25.3;18.2;;;;;;;3.45;77.36816;947.3957;;;;
2022/03/27 04:07:21;;;;;;;26.5;18.5;;;;;;;3.53;77.21289;947.4589;;;;
2022/03/27 04:09:46;;;;;;;27.2;20;;;;;;;3.5;77.36523;947.4354;;;;
2022/03/27 04:12:12;;;;;;;27;19.2;;;;;;;3.55;76.94824;947.4062;;;;
2022/03/27 04:14:36;;;;;;;26.4;19.2;;;;;;;3.55;76.7793;947.3907;;;;
2022/03/27 04:17:01;;;;;;;24.6;18.1;;;;;;;3.59;76.33496;947.3758;;;;
2022/03/27 04:19:27;;;;;;;24.3;17.2;;;;;;;3.45;76.48047;947.3463;;;;
2022/03/27 04:21:51;;;;;;;23.7;16.8;;;;;;;3.24;77.66699;947.3753;;;;
2022/03/27 04:24:16;;;;;;;24.8;17.6;;;;;;;3.24;77.50781;947.4327;;;;
2022/03/27 04:27:36;;;;;;;26.4;18.2;;;;;;;3.21;77.75;947.4714;;;;
2022/03/27 04:30:03;;;;;;;26.5;16.5;;;;;;;3.12;78.32813;947.4024;;;;
2022/03/27 04:32:28;;;;;;;25.8;17.8;;;;;;;3.07;78.71094;947.4149;;;;
2022/03/27 04:34:53;;;;;;;23.3;15.9;;;;;;;3.15;78.22266;947.3879;;;;
2022/03/27 04:37:18;;;;;;;24.2;17;;;;;;;3.16;78.29004;947.4573;;;;
2022/03/27 04:39:43;;;;;;;24.8;18.1;;;;;;;3.24;77.95898;947.4336;;;;
2022/03/27 04:42:09;;;;;;;26;16.5;;;;;;;3.25;77.85742;947.5109;;;;
2022/03/27 04:44:33;;;;;;;22;15.9;;;;;;;3.28;77.5498;947.5302;;;;
2022/03/27 04:47:00;;;;;;;25.8;16.7;;;;;;;3.18;78.04688;947.5529;;;;
2022/03/27 04:49:25;;;;;;;22.6;15.2;;;;;;;3.35;77.38379;947.5331;;;;
2022/03/27 04:51:50;;;;;;;27.1;17.7;;;;;;;3.28;77.17773;947.5156;;;;
2022/03/27 04:54:15;;;;;;;22.7;17.4;;;;;;;3.13;77.67871;947.5014;;;;
2022/03/27 04:56:40;;;;;;;23.9;16.3;;;;;;;3.2;77.09766;947.5737;;;;
2022/03/27 04:59:06;;;;;;;22.7;15.7;;;;;;;2.94;77.9248;947.5464;;;;
2022/03/27 05:01:31;;;;;;;24.3;15.9;;;;;;;2.7;79.41602;947.6269;;;;
2022/03/27 05:03:56;;;;;;;23.1;16.5;;;;;;;2.87;78.66309;947.5496;;;;
2022/03/27 05:06:21;;;;;;;24.5;17;;;;;;;2.8;78.77344;947.6125;;;;
2022/03/27 05:08:46;;;;;;;24;15.9;;;;;;;2.75;78.94434;947.69;;;;
2022/03/27 05:11:11;;;;;;;23.8;15.8;;;;;;;2.61;79.81543;947.7078;;;;
2022/03/27 05:13:37;;;;;;;20.4;15.3;;;;;;;2.73;79.47852;947.6876;;;;
2022/03/27 05:16:02;;;;;;;22.7;16.2;;;;;;;2.68;79.60352;947.7034;;;;
2022/03/27 05:18:29;;;;;;;25.9;15.6;;;;;;;2.73;79.42285;947.7031;;;;
2022/03/27 05:20:54;;;;;;;21.8;15.4;;;;;;;2.77;79.23926;947.7266;;;;
2022/03/27 05:23:21;;;;;;;23.2;14.4;;;;;;;2.75;79.47266;947.6503;;;;
2022/03/27 05:25:48;;;;;;;22.5;15.2;;;;;;;2.91;78.85059;947.6461;;;;
2022/03/27 05:28:10;;;;;;;21;14.7;;;;;;;3;78.38477;947.6799;;;;
2022/03/27 05:30:36;;;;;;;26.4;17.5;;;;;;;3.02;77.87207;947.6517;;;;
2022/03/27 05:33:03;;;;;;;23.4;16.2;;;;;;;3.15;77.80566;947.663;;;;
2022/03/27 05:35:27;;;;;;;24.8;16.6;;;;;;;3.22;77.34766;947.6552;;;;
2022/03/27 05:37:52;;;;;;;24.8;16.4;;;;;;;3.27;76.9873;947.6753;;;;
2022/03/27 05:40:18;;;;;;;23.8;16.6;;;;;;;3.29;76.66504;947.6383;;;;
2022/03/27 05:42:42;;;;;;;22.7;16.1;;;;;;;3.22;77.01074;947.7143;;;;
2022/03/27 05:45:41;;;;;;;24.1;16;;;;;;;3.39;76.52539;947.5655;;;;
2022/03/27 05:48:07;;;;;;;22.4;15.8;;;;;;;3.47;75.93164;947.6429;;;;
2022/03/27 05:50:32;;;;;;;25;17.3;;;;;;;3.66;75.82129;947.7155;;;;
2022/03/27 05:52:57;;;;;;;22.4;15.2;;;;;;;4.24;74.24805;947.7354;;;;
2022/03/27 05:55:23;;;;;;;20.7;14.6;;;;;;;5.18;70.29688;947.6848;;;;
2022/03/27 05:57:48;;;;;;;22.5;15.1;;;;;;;6.34;65.60156;947.6877;;;;
2022/03/27 06:00:16;;;;;;;21.7;14.8;;;;;;;7.09;62.37598;947.6597;;;;
2022/03/27 06:02:39;;;;;;;20.5;14.5;;;;;;;7.76;59.88672;947.7008;;;;
2022/03/27 06:05:04;;;;;;;20.7;14.5;;;;;;;8.33;57.77344;947.6947;;;;
2022/03/27 06:07:30;;;;;;;18.3;13.2;;;;;;;8.92;55.64648;947.6758;;;;
2022/03/27 06:09:55;;;;;;;18.5;13.4;;;;;;;9.51;53.86621;947.5062;;;;
2022/03/27 06:12:20;;;;;;;18.3;12.8;;;;;;;10.18;51.99902;947.4776;;;;
2022/03/27 06:14:45;;;;;;;14;10.7;;;;;;;10.48;49.16895;947.5258;;;;
2022/03/27 06:17:10;;;;;;;15.3;9.6;;;;;;;11.09;47.52441;947.517;;;;
2022/03/27 06:19:35;;;;;;;13.8;9.8;;;;;;;11.81;45.2666;947.589;;;;
2022/03/27 06:22:00;;;;;;;13.4;9.7;;;;;;;12.4;42.70215;947.4786;;;;
2022/03/27 06:24:27;;;;;;;14.1;9.9;;;;;;;13.39;41.22461;947.5027;;;;
2022/03/27 06:26:52;;;;;;;16;10.2;;;;;;;10.96;46.7334;947.4684;;;;
2022/03/27 06:29:17;;;;;;;14.8;10.7;;;;;;;10.9;46.9082;947.5067;;;;
2022/03/27 06:31:42;;;;;;;29.9;20.4;;;;;;;10.62;48.5918;947.4395;;;;
2022/03/27 06:34:09;;;;;;;21.4;15.4;;;;;;;10.02;50.62305;947.502;;;;
2022/03/27 06:36:35;;;;;;;15;10.6;;;;;;;10.92;46.73828;947.4553;;;;
2022/03/27 06:39:02;;;;;;;15.4;10.7;;;;;;;11.57;46.34082;947.4623;;;;
2022/03/27 06:41:27;;;;;;;16.7;11.4;;;;;;;12.53;43.65527;947.3844;;;;
2022/03/27 06:43:53;;;;;;;15.6;11.4;;;;;;;13.56;42.8623;947.329;;;;
2022/03/27 06:46:17;;;;;;;15.3;11.1;;;;;;;14.76;39.87891;947.3962;;;;
2022/03/27 06:48:43;;;;;;;14.4;11.1;;;;;;;14.69;39.96484;947.3836;;;;
2022/03/27 06:51:08;;;;;;;15.6;11.5;;;;;;;14.86;39.89941;947.334;;;;
2022/03/27 06:53:34;;;;;;;17.5;12.5;;;;;;;15.14;38.49414;947.4052;;;;
2022/03/27 06:55:59;;;;;;;16.5;12.1;;;;;;;12.91;43.07422;947.4597;;;;
2022/03/27 06:58:24;;;;;;;21.7;13.7;;;;;;;13.3;43.83594;947.3702;;;;
2022/03/27 07:03:14;;;;;;;15.3;11.3;;;;;;;13.27;41.99512;947.2953;;;;
2022/03/27 07:05:39;;;;;;;16.4;11.6;;;;;;;13.3;41.88379;947.279;;;;
2022/03/27 07:08:05;;;;;;;16.2;11.4;;;;;;;12.85;42.04688;947.2908;;;;
2022/03/27 07:10:30;;;;;;;17.9;10.9;;;;;;;13.28;41.60547;947.3234;;;;
2022/03/27 07:12:55;;;;;;;12.9;9.9;;;;;;;13.78;40.6748;947.2431;;;;
2022/03/27 07:15:20;;;;;;;15.2;10;;;;;;;13.91;40.34277;947.2489;;;;
2022/03/27 07:17:46;;;;;;;14.3;10.5;;;;;;;14.93;39.04004;947.2286;;;;
2022/03/27 07:20:10;;;;;;;14.6;9.9;;;;;;;13.96;39.64453;947.1189;;;;
2022/03/27 07:22:35;;;;;;;12.8;9.9;;;;;;;14.39;38.49707;947.1549;;;;
2022/03/27 07:25:00;;;;;;;13.9;9.4;;;;;;;14.93;37.92188;947.2414;;;;
2022/03/27 07:27:25;;;;;;;11.1;8.2;;;;;;;15.5;36.32031;947.1928;;;;
2022/03/27 07:29:51;;;;;;;15.1;9.3;;;;;;;15.78;35.60449;947.201;;;;
2022/03/27 07:32:17;;;;;;;12.4;8.7;;;;;;;16.05;34.01855;947.1969;;;;
2022/03/27 07:34:42;;;;;;;11;8.5;;;;;;;14.93;34.02441;947.1548;;;;
2022/03/27 07:37:08;;;;;;;10.5;8.2;;;;;;;16.85;32.67969;947.11;;;;
2022/03/27 07:39:33;;;;;;;12.2;8.2;;;;;;;16.03;34.22559;947.1373;;;;
2022/03/27 07:41:58;;;;;;;11.2;8.2;;;;;;;15.74;34.33008;947.1286;;;;
2022/03/27 07:44:23;;;;;;;11.4;8.6;;;;;;;15.57;34.43164;947.1345;;;;
2022/03/27 07:46:48;;;;;;;11.6;8.6;;;;;;;15.94;34.20703;947.0492;;;;
2022/03/27 07:49:13;;;;;;;16.8;8.9;;;;;;;17.77;31.26172;946.9853;;;;
2022/03/27 07:51:38;;;;;;;10.1;8.2;;;;;;;18.33;29.86035;946.925;;;;
2022/03/27 07:54:03;;;;;;;11.3;8.5;;;;;;;18.68;28.29102;946.8549;;;;
2022/03/27 07:56:29;;;;;;;12.7;8.2;;;;;;;18.21;29.71289;946.8611;;;;
2022/03/27 07:58:54;;;;;;;10.9;8.6;;;;;;;19.5;27.31738;946.8134;;;;
2022/03/27 08:01:19;;;;;;;11.5;8.6;;;;;;;19.44;27.08008;946.7625;;;;
2022/03/27 08:03:44;;;;;;;12.2;8.5;;;;;;;19.93;26.07227;946.7266;;;;
2022/03/27 08:06:09;;;;;;;10;7.4;;;;;;;21.42;24.8252;946.7388;;;;
2022/03/27 08:08:35;;;;;;;10;7.8;;;;;;;20.99;24.00586;946.7271;;;;
2022/03/27 08:11:01;;;;;;;9.9;7.2;;;;;;;21.83;23.33789;946.6415;;;;
2022/03/27 08:13:26;;;;;;;9.1;6.9;;;;;;;23.61;21.4668;946.67;;;;
2022/03/27 08:15:51;;;;;;;11.3;7.5;;;;;;;22.92;21.77441;946.6188;;;;
2022/03/27 08:18:18;;;;;;;12.3;7.9;;;;;;;23.5;22.46094;946.5525;;;;
2022/03/27 08:20:43;;;;;;;11.5;8;;;;;;;22.97;22.68066;946.5753;;;;
2022/03/27 08:23:09;;;;;;;11.6;7.9;;;;;;;24.56;21.01758;946.5126;;;;
2022/03/27 08:27:58;;;;;;;10.5;7.9;;;;;;;26.48;21.52246;946.4428;;;;
2022/03/27 08:30:25;;;;;;;10.2;7.7;;;;;;;26.57;19.34766;946.4473;;;;
2022/03/27 08:32:50;;;;;;;10.5;7.3;;;;;;;26.36;20.20313;946.3695;;;;
2022/03/27 08:35:15;;;;;;;10.8;8.1;;;;;;;26.75;19.66309;946.4227;;;;
2022/03/27 08:37:42;;;;;;;10;7.9;;;;;;;27.79;19.61426;946.4254;;;;
2022/03/27 08:40:07;;;;;;;11.2;7.1;;;;;;;29.23;18.2002;946.3689;;;;
2022/03/27 08:42:32;;;;;;;9.2;7.1;;;;;;;27.93;17.81445;946.4041;;;;
2022/03/27 08:44:57;;;;;;;10;7.5;;;;;;;27.54;17.91797;946.35;;;;
2022/03/27 08:47:22;;;;;;;9.1;7.2;;;;;;;27.72;17.50977;946.3563;;;;
2022/03/27 08:49:48;;;;;;;9.6;6.4;;;;;;;28.46;16.59961;946.343;;;;
2022/03/27 08:52:13;;;;;;;7.8;6.4;;;;;;;28.67;16.5;946.2342;;;;
2022/03/27 08:54:38;;;;;;;9.4;6.5;;;;;;;30.25;15.04199;946.2927;;;;
2022/03/27 08:57:03;;;;;;;9.3;6.5;;;;;;;29.63;15.7002;946.2967;;;;
2022/03/27 08:59:28;;;;;;;8.1;6.5;;;;;;;30.18;15.18262;946.2477;;;;
2022/03/27 09:01:54;;;;;;;9.8;6.2;;;;;;;29.98;15.46191;946.282;;;;
2022/03/27 09:04:19;;;;;;;7.3;6.5;;;;;;;27.4;15.61133;946.283;;;;
2022/03/27 09:06:45;;;;;;;7.7;6.1;;;;;;;26.68;16.35645;946.248;;;;
2022/03/27 09:09:10;;;;;;;7.4;6;;;;;;;27.33;16.85449;946.258;;;;
2022/03/27 09:11:35;;;;;;;9.2;5.9;;;;;;;26.2;17.19043;946.2047;;;;
2022/03/27 09:14:00;;;;;;;9.4;6.2;;;;;;;28.06;17.26172;946.2239;;;;
2022/03/27 09:16:25;;;;;;;8.2;6.6;;;;;;;29.34;15.70215;946.1518;;;;
2022/03/27 09:18:51;;;;;;;8.3;6.1;;;;;;;29.69;15.26172;946.1847;;;;
2022/03/27 09:21:15;;;;;;;7.3;6.2;;;;;;;30.22;14.15723;946.1497;;;;
2022/03/27 09:23:40;;;;;;;8.3;5.5;;;;;;;27.71;15.19531;946.2258;;;;
2022/03/27 09:26:05;;;;;;;7.9;5.5;;;;;;;27.25;15.97363;946.2109;;;;
2022/03/27 09:28:32;;;;;;;8.5;6.1;;;;;;;26.4;14.91309;946.1666;;;;
2022/03/27 09:30:57;;;;;;;6.8;5.6;;;;;;;26.93;15.64258;946.1596;;;;
2022/03/27 09:33:24;;;;;;;6.5;5.5;;;;;;;28.37;14.53906;946.1766;;;;
2022/03/27 09:35:49;;;;;;;9.8;6;;;;;;;28.02;15.68066;946.1884;;;;
2022/03/27 09:38:19;;;;;;;7.6;6.2;;;;;;;26.48;14.58496;946.2336;;;;
2022/03/27 09:40:40;;;;;;;7;5.6;;;;;;;26.88;14.77539;946.2703;;;;
2022/03/27 09:43:05;;;;;;;7.4;5.6;;;;;;;28.9;15.41309;946.2208;;;;
2022/03/27 09:45:30;;;;;;;8.4;5.8;;;;;;;28.86;15.32813;946.223;;;;
2022/03/27 09:47:55;;;;;;;7.4;5.8;;;;;;;29.01;15.21484;946.1923;;;;
2022/03/27 09:50:21;;;;;;;8.2;5.8;;;;;;;28.74;16.3125;946.2429;;;;
2022/03/27 09:52:46;;;;;;;9.8;6.6;;;;;;;27.35;17.875;946.2211;;;;
2022/03/27 09:55:11;;;;;;;8.7;7.1;;;;;;;27.17;18.69727;946.2394;;;;
2022/03/27 09:57:36;;;;;;;10.3;7.1;;;;;;;27.08;19.6543;946.2045;;;;
2022/03/27 10:00:02;;;;;;;10.3;7.4;;;;;;;27.18;19.3623;946.2043;;;;
2022/03/27 10:02:27;;;;;;;10.2;7.7;;;;;;;27.49;19.32813;946.2351;;;;
2022/03/27 10:04:52;;;;;;;9;7.1;;;;;;;27.16;19.12402;946.2464;;;;
2022/03/27 10:07:19;;;;;;;11.1;7.7;;;;;;;26.62;20.58105;946.2029;;;;
2022/03/27 10:09:44;;;;;;;12;8.6;;;;;;;26.21;22.05371;946.2181;;;;
2022/03/27 10:12:09;;;;;;;12.3;8.4;;;;;;;25.24;22.30078;946.2047;;;;
2022/03/27 10:14:34;;;;;;;11.2;8.4;;;;;;;25.73;21.78223;946.2249;;;;
2022/03/27 10:16:59;;;;;;;11.6;8.5;;;;;;;25.79;22.30469;946.23;;;;
2022/03/27 10:19:25;;;;;;;13.8;8.7;;;;;;;26.1;21.18457;946.1741;;;;
2022/03/27 10:21:50;;;;;;;11.7;8.4;;;;;;;26.41;20.39453;946.179;;;;
2022/03/27 10:24:15;;;;;;;12.7;8.2;;;;;;;26.9;20.41699;946.1191;;;;
2022/03/27 10:26:42;;;;;;;13.8;8.6;;;;;;;27.16;19.36133;946.1727;;;;
2022/03/27 10:29:07;;;;;;;13.8;8.5;;;;;;;27.26;19.75684;946.1161;;;;
2022/03/27 10:31:33;;;;;;;9.6;8;;;;;;;26.91;19.78906;946.0264;;;;
2022/03/27 10:34:00;;;;;;;13.9;8.5;;;;;;;26.6;20.28516;945.9944;;;;
2022/03/27 10:36:23;;;;;;;12.5;9.1;;;;;;;25.98;22.76367;946.0372;;;;
2022/03/27 10:38:48;;;;;;;12.2;9.1;;;;;;;26.3;22.10547;945.96;;;;
2022/03/27 10:41:13;;;;;;;13.4;9.9;;;;;;;26.01;22.85938;945.9626;;;;
2022/03/27 10:43:38;;;;;;;14.1;10.2;;;;;;;26.29;23.59668;945.9872;;;;
2022/03/27 10:46:05;;;;;;;12.9;9.4;;;;;;;26.25;22.54004;945.972;;;;
2022/03/27 10:48:30;;;;;;;15.2;10.4;;;;;;;26.37;23.41113;945.9388;;;;
2022/03/27 10:50:55;;;;;;;14.1;10.3;;;;;;;26.56;23.36133;945.8937;;;;
2022/03/27 10:53:21;;;;;;;14.4;10;;;;;;;25.96;23.49512;945.9703;;;;
2022/03/27 10:55:46;;;;;;;14.6;10.1;;;;;;;26.26;22.68359;945.9224;;;;
2022/03/27 10:58:12;;;;;;;11.9;9.9;;;;;;;26.48;23.03711;945.9608;;;;
2022/03/27 11:00:37;;;;;;;15;10.2;;;;;;;26.74;22.65918;945.9989;;;;
2022/03/27 11:03:02;;;;;;;14.8;10.7;;;;;;;27.2;21.9834;945.9691;;;;
2022/03/27 11:05:27;;;;;;;16.4;10.8;;;;;;;28.23;21.22559;946.035;;;;
2022/03/27 11:07:52;;;;;;;12.8;10.2;;;;;;;28.03;21.32324;945.9556;;;;
2022/03/27 11:10:18;;;;;;;15.4;11.3;;;;;;;27.19;22.25586;945.9515;;;;
2022/03/27 11:12:43;;;;;;;13.9;10.5;;;;;;;26.85;22.39355;945.9366;;;;
2022/03/27 11:15:18;;;;;;;15.3;10.9;;;;;;;26.91;22.06445;945.9348;;;;
2022/03/27 11:17:43;;;;;;;14;10.7;;;;;;;26.52;22.84961;945.8979;;;;
2022/03/27 11:20:08;;;;;;;13.8;10.3;;;;;;;26.7;22.46875;945.8575;;;;
2022/03/27 11:22:33;;;;;;;14.4;10.1;;;;;;;27.83;21.74121;945.8557;;;;
2022/03/27 11:24:58;;;;;;;15.2;10.6;;;;;;;27.54;21.57324;945.8679;;;;
2022/03/27 11:27:24;;;;;;;14.3;10.2;;;;;;;26.24;23.06055;945.8997;;;;
2022/03/27 11:29:49;;;;;;;16.5;10;;;;;;;26.62;23.00879;945.8369;;;;
2022/03/27 11:32:14;;;;;;;15.3;10.5;;;;;;;27.21;21.91309;945.89;;;;
2022/03/27 11:34:39;;;;;;;14.4;10.3;;;;;;;26.5;22.99121;945.8309;;;;
2022/03/27 11:37:04;;;;;;;15.9;10.2;;;;;;;25.99;23.0957;945.8187;;;;
2022/03/27 11:39:29;;;;;;;16.5;10.6;;;;;;;25.93;22.38281;945.7761;;;;
2022/03/27 11:41:54;;;;;;;13.8;9.8;;;;;;;26.51;22.24609;945.7751;;;;
2022/03/27 11:44:22;;;;;;;15;10;;;;;;;26.66;21.8623;945.7838;;;;
2022/03/27 11:46:45;;;;;;;14.1;10.2;;;;;;;27.03;21.58398;945.7726;;;;
2022/03/27 11:49:12;;;;;;;14.9;10.3;;;;;;;27.48;20.63281;945.6696;;;;
2022/03/27 11:51:36;;;;;;;13.2;9.8;;;;;;;27.14;21.02051;945.6764;;;;
2022/03/27 11:54:03;;;;;;;13.8;9.6;;;;;;;26.24;22.01953;945.7249;;;;
2022/03/27 11:56:27;;;;;;;12.8;10.3;;;;;;;26.09;21.21973;945.705;;;;
2022/03/27 11:58:52;;;;;;;14.3;9.4;;;;;;;26.16;21.73145;945.6526;;;;
2022/03/27 12:01:18;;;;;;;13.8;9.7;;;;;;;26.59;21.32617;945.6703;;;;
2022/03/27 12:03:43;;;;;;;11.9;9.4;;;;;;;27.18;20.47656;945.5748;;;;
2022/03/27 12:06:09;;;;;;;13.2;9.9;;;;;;;25.86;22.40332;945.6025;;;;
2022/03/27 12:08:33;;;;;;;14.4;9.9;;;;;;;25.79;22.6709;945.5659;;;;
2022/03/27 12:11:04;;;;;;;12.5;9.2;;;;;;;27.63;20.54492;945.5969;;;;
2022/03/27 12:13:24;;;;;;;15.3;10;;;;;;;28.98;18.9873;945.5822;;;;
2022/03/27 12:15:49;;;;;;;14;9.3;;;;;;;29.61;18.93066;945.4908;;;;
2022/03/27 12:18:15;;;;;;;12.7;8.9;;;;;;;29.25;19.2373;945.4489;;;;
2022/03/27 12:20:40;;;;;;;12.4;8.6;;;;;;;30.17;18.56055;945.4877;;;;
2022/03/27 12:23:04;;;;;;;12.3;9.3;;;;;;;30.62;17.89746;945.4169;;;;
2022/03/27 12:25:30;;;;;;;12.8;9;;;;;;;30.18;18.45313;945.4476;;;;
2022/03/27 12:30:20;;;;;;;12.7;9.4;;;;;;;30.41;18.15234;945.3259;;;;
2022/03/27 12:32:47;;;;;;;12.8;9.3;;;;;;;29.63;19.19336;945.3114;;;;
2022/03/27 12:35:12;;;;;;;11.3;8.6;;;;;;;29.4;18.6123;945.3198;;;;
2022/03/27 12:37:38;;;;;;;12.8;9.4;;;;;;;29.72;18.43457;945.3364;;;;
2022/03/27 12:40:03;;;;;;;12.2;9;;;;;;;28.78;18.58691;945.1889;;;;
2022/03/27 12:42:32;;;;;;;12;8.8;;;;;;;29.5;19.34375;945.315;;;;
2022/03/27 12:44:55;;;;;;;12.5;8.5;;;;;;;29.84;18.40332;945.3005;;;;
2022/03/27 12:47:21;;;;;;;12;8.5;;;;;;;30.42;18.64258;945.2813;;;;
2022/03/27 12:49:46;;;;;;;12.3;9;;;;;;;30.2;18.32227;945.2328;;;;
2022/03/27 12:52:11;;;;;;;11.6;8.7;;;;;;;30.22;17.47559;945.2375;;;;
2022/03/27 12:54:36;;;;;;;12.6;9;;;;;;;30.52;18.25195;945.1916;;;;
2022/03/27 12:57:01;;;;;;;13.2;8.5;;;;;;;29.11;19.94531;945.2151;;;;
2022/03/27 12:59:26;;;;;;;12.4;9.3;;;;;;;29.39;18.80176;945.142;;;;
2022/03/27 13:01:51;;;;;;;13.2;9.1;;;;;;;29.31;19.03711;945.1483;;;;
2022/03/27 13:04:16;;;;;;;13.8;9.2;;;;;;;29.05;19.53809;945.1613;;;;
2022/03/27 13:06:43;;;;;;;12.2;9;;;;;;;28.19;20.4873;945.1973;;;;
2022/03/27 13:09:07;;;;;;;12.1;8.6;;;;;;;29.03;19.62012;945.139;;;;
2022/03/27 13:11:31;;;;;;;14.5;8.6;;;;;;;29.69;18.68359;945.0983;;;;
2022/03/27 13:13:56;;;;;;;11.9;8.2;;;;;;;30.21;18.88477;945.0948;;;;
2022/03/27 13:16:23;;;;;;;12.6;8.6;;;;;;;30.17;18.5957;945.0833;;;;
2022/03/27 13:18:48;;;;;;;11.9;8.6;;;;;;;29.68;18.87402;945.1136;;;;
2022/03/27 13:21:14;;;;;;;11.2;8.3;;;;;;;29.3;18.97754;945.0517;;;;
2022/03/27 13:23:39;;;;;;;10.4;8.5;;;;;;;29.83;18.47461;945.0159;;;;
2022/03/27 13:26:04;;;;;;;11.6;8.7;;;;;;;29.65;18.71777;945.0198;;;;
2022/03/27 13:28:29;;;;;;;12.3;8.6;;;;;;;28.5;20.02539;944.9911;;;;
2022/03/27 13:30:55;;;;;;;12.9;8.8;;;;;;;27.35;21.44531;945.0203;;;;
2022/03/27 13:33:22;;;;;;;10.6;8.3;;;;;;;27.54;20.99121;945.045;;;;
2022/03/27 13:35:48;;;;;;;10.3;7.6;;;;;;;27.56;21.26563;945.0064;;;;
2022/03/27 13:38:10;;;;;;;11.3;8.6;;;;;;;27.83;20.25684;944.8619;;;;
2022/03/27 13:43:00;;;;;;;15;9;;;;;;;26.67;21.68555;944.7996;;;;
2022/03/27 13:45:25;;;;;;;12;8.4;;;;;;;25.35;23.35742;944.8293;;;;
2022/03/27 13:47:50;;;;;;;10.1;7.4;;;;;;;25.95;21.98145;944.8811;;;;
2022/03/27 13:52:40;;;;;;;11.5;8.7;;;;;;;26.32;21.51465;944.8251;;;;
2022/03/27 13:55:06;;;;;;;16.6;8.5;;;;;;;25.49;22.13574;944.7297;;;;
2022/03/27 13:57:31;;;;;;;11.9;8;;;;;;;24.6;22.7998;944.7172;;;;
2022/03/27 13:59:56;;;;;;;11.8;8.3;;;;;;;24.37;24.40234;944.8194;;;;
2022/03/27 14:02:21;;;;;;;12.3;9.2;;;;;;;24.28;23.31348;944.7689;;;;
2022/03/27 14:04:46;;;;;;;10.9;8.2;;;;;;;24.73;22.74707;944.7642;;;;
2022/03/27 14:07:11;;;;;;;12;8.6;;;;;;;24.73;23.39551;944.7953;;;;
2022/03/27 14:09:36;;;;;;;11.9;8.9;;;;;;;24.77;23.26855;944.7328;;;;
2022/03/27 14:12:01;;;;;;;11.8;8.5;;;;;;;23.98;23.80371;944.657;;;;
2022/03/27 14:14:36;;;;;;;11.8;8.8;;;;;;;23.5;24.41309;944.6768;;;;
2022/03/27 14:17:02;;;;;;;11.5;8.6;;;;;;;24;23.65137;944.715;;;;
2022/03/27 14:19:27;;;;;;;10.3;8;;;;;;;23.84;23.00781;944.6046;;;;
2022/03/27 14:21:55;;;;;;;14.1;8.5;;;;;;;23.42;24.04395;944.6815;;;;
2022/03/27 14:24:18;;;;;;;10;7.5;;;;;;;23.03;25.15137;944.6088;;;;
2022/03/27 14:26:44;;;;;;;16.6;9.6;;;;;;;22.12;25.5918;944.6331;;;;
2022/03/27 14:29:09;;;;;;;10.9;8.4;;;;;;;21.73;25.53418;944.6504;;;;
2022/03/27 14:31:34;;;;;;;11.7;8.5;;;;;;;21.42;25.98535;944.6699;;;;
2022/03/27 14:33:59;;;;;;;10.2;7.9;;;;;;;21.28;26.01172;944.5773;;;;